Time;durP1;ratioP1;P1;durP2;ratioP2;P2;SDS_P1;SDS_P2;PMS_P1;PMS_P2;Temp;Humidity;BMP_temperature;BMP_pressure;BME280_temperature;BME280_humidity;BME280_pressure;Samples;Min_cycle;Max_cycle;Signal;HPM_P1;HPM_P2
2023/04/21 00:00:08;;;;;;;18.33;11.23;;;;;;;;;;4993429;28;20015;-87
2023/04/21 00:02:40;;;;;;;18.45;11.40;;;;;;;;;;4991993;28;20021;-88
2023/04/21 00:05:11;;;;;;;16.38;11.52;;;;;;;;;;4995493;28;20039;-84
2023/04/21 00:07:37;;;;;;;;;;;6.80;99.90;;;;;;4984999;28;20098;-85
2023/04/21 00:10:06;;;;;;;19.15;11.13;;;;;;;;;;4985353;28;19910;-85
2023/04/21 00:12:32;;;;;;;19.05;11.30;;;;;;;;;;4969269;28;20034;-85
2023/04/21 00:14:58;;;;;;;17.15;11.55;;;;;;;;;;4992888;28;20059;-87
2023/04/21 00:17:24;;;;;;;19.42;11.98;;;;;;;;;;4986124;28;20038;-86
2023/04/21 00:19:50;;;;;;;16.25;10.75;;;;;;;;;;4993048;28;20049;-86
2023/04/21 00:22:17;;;;;;;18.95;11.13;;;;;;;;;;4995587;28;20040;-88
2023/04/21 00:24:43;;;;;;;17.35;11.25;;;;;;;;;;5005952;28;20031;-87
2023/04/21 00:27:10;;;;;;;17.15;11.23;;;;;;;;;;4984769;28;20075;-87
2023/04/21 00:29:36;;;;;;;17.63;11.57;;;;;;;;;;5007813;28;20038;-87
2023/04/21 00:32:07;;;;;;;18.73;12.07;;;;;;;;;;4993368;28;20014;-88
2023/04/21 00:34:33;;;;;;;;;;;6.60;99.90;;;;;;5007210;28;20026;-86
2023/04/21 00:36:59;;;;;;;18.92;10.80;;;;;;;;;;4981516;28;19949;-89
2023/04/21 00:39:25;;;;;;;19.75;12.23;;;;;;;;;;5007967;28;20073;-89
2023/04/21 00:41:51;;;;;;;17.52;11.57;;;;;;;;;;4993346;28;20069;-84
2023/04/21 00:44:17;;;;;;;22.15;11.63;;;;;;;;;;4985610;28;20010;-87
2023/04/21 00:46:43;;;;;;;18.30;11.57;;;;;;;;;;4988752;28;20015;-86
2023/04/21 00:49:09;;;;;;;19.42;12.18;;;;;;;;;;4982102;28;20026;-88
2023/04/21 00:51:36;;;;;;;20.58;13.05;;;;;;;;;;4987257;28;20106;-89
2023/04/21 00:54:04;;;;;;;21.63;12.60;;;;;;;;;;4986370;28;20046;-85
2023/04/21 00:56:31;;;;;;;19.63;12.43;;;;;;;;;;5000924;28;20095;-88
2023/04/21 00:58:58;;;;;;;20.25;12.68;;;;;;;;;;4986453;28;20908;-87
2023/04/21 01:01:24;;;;;;;19.05;12.32;;;;;;;;;;4992941;28;20101;-87
2023/04/21 01:03:50;;;;;;;21.10;12.45;;;;;;;;;;5004955;28;20035;-88
2023/04/21 01:06:17;;;;;;;21.45;12.88;;;;;;;;;;4991669;28;20038;-85
2023/04/21 01:08:45;;;;;;;20.35;13.43;;;;;;;;;;4984737;28;20038;-88
2023/04/21 01:11:11;;;;;;;20.33;12.90;;;;;;;;;;4991906;28;20026;-85
2023/04/21 01:13:38;;;;;;;21.42;13.00;;;;;;;;;;4986478;28;20028;-85
2023/04/21 01:16:04;;;;;;;22.50;13.77;;;;;;;;;;4989605;28;20030;-84
2023/04/21 01:18:30;;;;;;;23.33;13.27;;;;;;;;;;4984538;28;20026;-87
2023/04/21 01:20:57;;;;;;;21.65;12.35;;;;;;;;;;4988783;28;20027;-86
2023/04/21 01:23:23;;;;;;;22.33;13.13;;;;;;;;;;4984077;28;20186;-88
2023/04/21 01:25:50;;;;;;;23.95;14.00;;;;;;;;;;5000518;28;20035;-85
2023/04/21 01:28:21;;;;;;;19.45;11.93;;;;;;;;;;4988456;28;20030;-85
2023/04/21 01:30:46;;;;;;;21.13;13.20;;;;;;;;;;4987331;28;20046;-85
2023/04/21 01:33:12;;;;;;;21.70;12.45;;;;;;;;;;4988007;28;20030;-85
2023/04/21 01:35:39;;;;;;;21.98;13.45;;;;;;;;;;4985574;28;20022;-88
2023/04/21 01:38:05;;;;;;;21.17;12.10;;;;;;;;;;4990433;28;20038;-87
2023/04/21 01:40:31;;;;;;;23.65;13.45;;;;;;;;;;4993182;28;20027;-85
2023/04/21 01:42:59;;;;;;;22.70;13.57;;;;;;;;;;4983764;28;20061;-86
2023/04/21 01:45:25;;;;;;;22.67;13.73;;;;;;;;;;4990467;28;20038;-86
2023/04/21 01:47:51;;;;;;;22.10;13.25;;;;;;;;;;5004434;28;20035;-85
2023/04/21 01:50:17;;;;;;;21.73;13.30;;;;;;;;;;4984418;28;20038;-88
2023/04/21 01:52:43;;;;;;;21.83;12.68;;;;;;;;;;4980944;28;20034;-86
2023/04/21 01:55:09;;;;;;;21.88;13.23;;;;;;;;;;4985418;28;20034;-86
2023/04/21 01:57:35;;;;;;;23.95;14.38;;;;;;;;;;4999537;28;20037;-85
2023/04/21 02:00:01;;;;;;;21.60;12.82;;;;;;;;;;4989646;28;20026;-89
2023/04/21 02:02:27;;;;;;;25.67;13.60;;;;;;;;;;4990843;28;20273;-89
2023/04/21 02:04:55;;;;;;;23.80;13.77;;;;;;;;;;4982276;28;20039;-85
2023/04/21 02:07:21;;;;;;;23.15;13.63;;;;;;;;;;4990808;28;20079;-85
2023/04/21 02:09:47;;;;;;;22.92;13.80;;;;;;;;;;4986392;28;20035;-86
2023/04/21 02:12:14;;;;;;;23.73;13.68;;;;;;;;;;4987493;28;20044;-87
2023/04/21 02:14:40;;;;;;;23.30;14.40;;;;;;;;;;4986939;28;20027;-88
2023/04/21 02:17:06;;;;;;;24.02;14.30;;;;;;;;;;4984433;28;20035;-88
2023/04/21 02:19:34;;;;;;;23.75;13.98;;;;;;;;;;4989023;28;20038;-86
2023/04/21 02:22:00;;;;;;;25.65;14.88;;;;;;;;;;4988641;28;20097;-90
2023/04/21 02:24:26;;;;;;;26.88;14.18;;;;;;;;;;4980214;28;20023;-84
2023/04/21 02:26:52;;;;;;;24.52;15.15;;;;;;;;;;4979311;28;20015;-85
2023/04/21 02:29:18;;;;;;;24.70;15.05;;;;;;;;;;4982935;28;20035;-84
2023/04/21 02:31:44;;;;;;;23.55;15.07;;;;;;;;;;4982911;28;20062;-85
2023/04/21 02:34:10;;;;;;;27.02;15.30;;;;;;;;;;4981335;28;20035;-85
2023/04/21 02:36:36;;;;;;;28.35;15.18;;;;;;;;;;4981922;28;20027;-86
2023/04/21 02:39:05;;;;;;;26.95;15.23;;;;;;;;;;4980932;28;20046;-85
2023/04/21 02:41:31;;;;;;;29.25;16.42;;;;;;;;;;4984433;28;20027;-85
2023/04/21 02:43:57;;;;;;;29.40;15.82;;;;;;;;;;4982024;28;20111;-88
2023/04/21 02:46:24;;;;;;;28.27;16.05;;;;;;;;;;4984349;28;20129;-86
2023/04/21 02:48:51;;;;;;;26.55;15.32;;;;;;;;;;4988824;28;20053;-87
2023/04/21 02:51:17;;;;;;;30.42;17.40;;;;;;;;;;4988166;28;20033;-85
2023/04/21 02:53:43;;;;;;;27.17;15.85;;;;;;;;;;4979905;28;20035;-87
2023/04/21 02:56:10;;;;;;;28.83;15.60;;;;;;;;;;4983651;28;20034;-84
2023/04/21 02:58:36;;;;;;;30.08;17.13;;;;;;;;;;4985376;28;20023;-87
2023/04/21 03:01:03;;;;;;;26.98;15.68;;;;;;;;;;4984961;28;20045;-87
2023/04/21 03:03:30;;;;;;;25.73;15.40;;;;;;;;;;4982638;28;20049;-85
2023/04/21 03:06:05;;;;;;;28.13;16.23;;;;;;;;;;4983410;28;20038;-86
2023/04/21 03:08:32;;;;;;;29.08;15.48;;;;;;;;;;5003344;28;20015;-85
2023/04/21 03:10:58;;;;;;;27.45;15.55;;;;;;;;;;4986962;28;20027;-85
2023/04/21 03:13:27;;;;;;;26.92;16.85;;;;;;;;;;4985861;28;20029;-87
2023/04/21 03:15:53;;;;;;;27.10;16.08;;;;;;;;;;4986007;28;20082;-85
2023/04/21 03:18:19;;;;;;;27.65;15.52;;;;;;;;;;4981953;28;20034;-86
2023/04/21 03:20:45;;;;;;;28.08;16.00;;;;;;;;;;4984448;28;20027;-86
2023/04/21 03:23:11;;;;;;;26.08;15.85;;;;;;;;;;4978942;28;20047;-87
2023/04/21 03:25:37;;;;;;;28.13;15.73;;;;;;;;;;4988195;28;20484;-84
2023/04/21 03:28:03;;;;;;;26.40;15.52;;;;;;;;;;4986432;28;20058;-86
2023/04/21 03:30:29;;;;;;;25.35;14.85;;;;;;;;;;4995796;28;20023;-87
2023/04/21 03:32:57;;;;;;;27.27;16.08;;;;;;;;;;4981704;28;20091;-84
2023/04/21 03:35:23;;;;;;;29.92;14.77;;;;;;;;;;4984473;28;20044;-85
2023/04/21 03:37:49;;;;;;;27.88;15.75;;;;;;;;;;4987796;28;20055;-84
2023/04/21 03:40:15;;;;;;;25.42;15.55;;;;;;;;;;4985553;28;20039;-87
2023/04/21 03:42:41;;;;;;;26.50;14.90;;;;;;;;;;4989196;28;20018;-88
2023/04/21 03:45:08;;;;;;;29.45;16.38;;;;;;;;;;4993275;28;20038;-85
2023/04/21 03:47:34;;;;;;;27.27;16.27;;;;;;;;;;4989905;28;20031;-87
2023/04/21 03:50:00;;;;;;;24.17;14.07;;;;;;;;;;4993641;28;20034;-86
2023/04/21 03:52:26;;;;;;;23.35;14.43;;;;;;;;;;4997538;28;20083;-88
2023/04/21 03:54:52;;;;;;;25.73;14.65;;;;;;;;;;5005154;28;20038;-84
2023/04/21 03:57:18;;;;;;;25.05;14.45;;;;;;;;;;4991104;28;20157;-86
2023/04/21 03:59:45;;;;;;;24.65;15.20;;;;;;;;;;4983822;28;20023;-85
2023/04/21 04:02:11;;;;;;;25.75;14.65;;;;;;;;;;5006831;28;20023;-86
2023/04/21 04:04:37;;;;;;;27.80;15.07;;;;;;;;;;4989387;28;20046;-87
2023/04/21 04:07:03;;;;;;;24.67;14.40;;;;;;;;;;4992381;28;20035;-84
2023/04/21 04:09:30;;;;;;;20.30;13.23;;;;;;;;;;4995687;28;20046;-88
2023/04/21 04:11:56;;;;;;;24.70;14.32;;;;;;;;;;4989219;28;20046;-88
2023/04/21 04:14:22;;;;;;;27.00;15.82;;;;;;;;;;4994610;28;20023;-85
2023/04/21 04:16:48;;;;;;;24.13;14.23;;;;;;;;;;4986370;28;20054;-88
2023/04/21 04:19:14;;;;;;;24.88;14.18;;;;;;;;;;5003738;28;20015;-88
2023/04/21 04:21:41;;;;;;;26.52;14.82;;;;;;;;;;4992917;28;20075;-87
2023/04/21 04:24:07;;;;;;;25.45;14.48;;;;;;;;;;5005989;28;20023;-87
2023/04/21 04:26:34;;;;;;;25.33;13.93;;;;;;;;;;5014653;28;20038;-86
2023/04/21 04:29:01;;;;;;;25.05;13.95;;;;;;;;;;4994985;28;20047;-87
2023/04/21 04:31:29;;;;;;;25.33;14.50;;;;;;;;;;4995055;28;20019;-87
2023/04/21 04:33:55;;;;;;;24.30;13.85;;;;;;;;;;4978889;28;20030;-86
2023/04/21 04:36:21;;;;;;;28.77;15.18;;;;;;;;;;4991818;28;20023;-87
2023/04/21 04:38:47;;;;;;;25.98;14.55;;;;;;;;;;4986979;28;20030;-85
2023/04/21 04:41:14;;;;;;;25.30;14.98;;;;;;;;;;4984374;28;20023;-86
2023/04/21 04:43:40;;;;;;;24.38;14.68;;;;;;;;;;5010259;28;20051;-88
2023/04/21 04:46:08;;;;;;;27.98;14.77;;;;;;;;;;4992328;28;20014;-87
2023/04/21 04:48:34;;;;;;;27.70;15.48;;;;;;;;;;4993249;28;20027;-86
2023/04/21 04:51:00;;;;;;;26.08;16.08;;;;;;;;;;4990714;28;20007;-86
2023/04/21 04:53:29;;;;;;;27.00;15.20;;;;;;;;;;4990008;28;20030;-84
2023/04/21 04:55:57;;;;;;;25.67;15.02;;;;;;;;;;5001594;28;20031;-85
2023/04/21 04:58:25;;;;;;;24.27;13.48;;;;;;;;;;5005576;28;20023;-82
2023/04/21 05:00:51;;;;;;;25.67;15.00;;;;;;;;;;4986897;28;20039;-83
2023/04/21 05:03:17;;;;;;;22.80;14.05;;;;;;;;;;4972379;28;20047;-86
2023/04/21 05:05:45;;;;;;;25.00;15.25;;;;;;;;;;4992281;28;20073;-85
2023/04/21 05:08:11;;;;;;;22.45;13.93;;;;;;;;;;4992801;28;20039;-84
2023/04/21 05:10:37;;;;;;;24.27;14.50;;;;;;;;;;4988864;28;20027;-83
2023/04/21 05:13:03;;;;;;;24.60;14.27;;;;;;;;;;5005373;28;20021;-84
2023/04/21 05:15:29;;;;;;;23.60;14.55;;;;;;;;;;4990224;28;20019;-83
2023/04/21 05:17:55;;;;;;;25.15;14.73;;;;;;;;;;4990455;28;20644;-88
2023/04/21 05:20:21;;;;;;;25.35;14.48;;;;;;;;;;4998658;28;20027;-86
2023/04/21 05:22:48;;;;;;;21.02;13.10;;;;;;;;;;5012961;28;20078;-88
2023/04/21 05:25:14;;;;;;;23.45;14.02;;;;;;;;;;4984429;28;20023;-88
2023/04/21 05:27:41;;;;;;;24.98;13.93;;;;;;;;;;4989675;28;20023;-88
2023/04/21 05:30:08;;;;;;;23.27;13.68;;;;;;;;;;4974973;28;20019;-90
2023/04/21 05:32:35;;;;;;;25.27;15.35;;;;;;;;;;4982976;28;20058;-87
2023/04/21 05:35:01;;;;;;;26.27;15.45;;;;;;;;;;4992295;28;20089;-87
2023/04/21 05:37:27;;;;;;;25.92;15.10;;;;;;;;;;5009207;28;20097;-83
2023/04/21 05:39:53;;;;;;;24.83;14.57;;;;;;;;;;5007477;28;20058;-87
2023/04/21 05:42:42;;;;;;;23.63;13.98;;;;;;;;;;4992432;28;20039;-83
2023/04/21 05:45:08;;;;;;;21.88;12.93;;;;;;;;;;5003150;28;20031;-83
2023/04/21 05:47:37;;;;;;;24.70;13.45;;;;;;;;;;5004397;28;20023;-84
2023/04/21 05:50:09;;;;;;;24.77;13.85;;;;;;;;;;4992577;28;20023;-83
2023/04/21 05:52:36;;;;;;;22.50;13.20;;;;;;;;;;4973750;28;20039;-82
2023/04/21 05:55:03;;;;;;;22.15;13.10;;;;;;;;;;4987980;28;20027;-82
2023/04/21 05:57:29;;;;;;;23.38;13.50;;;;;;;;;;4991571;28;20027;-82
2023/04/21 05:59:55;;;;;;;23.40;12.98;;;;;;;;;;4993249;28;20616;-84
2023/04/21 06:02:25;;;;;;;24.52;13.38;;;;;;;;;;4992524;28;20030;-83
2023/04/21 06:04:53;;;;;;;21.77;12.55;;;;;;;;;;4993607;28;20026;-82
2023/04/21 06:07:19;;;;;;;21.05;13.05;;;;;;;;;;4992590;28;20163;-82
2023/04/21 06:09:49;;;;;;;21.77;12.60;;;;;;;;;;4983907;28;20192;-85
2023/04/21 06:12:15;;;;;;;21.37;12.60;;;;;;;;;;4985537;28;20234;-87
2023/04/21 06:14:41;;;;;;;22.58;13.43;;;;;;;;;;5001533;28;20286;-82
2023/04/21 06:17:07;;;;;;;21.20;13.45;;;;;;;;;;4986868;28;20041;-82
2023/04/21 06:19:37;;;;;;;20.70;12.77;;;;;;;;;;4981293;28;20031;-85
2023/04/21 06:22:06;;;;;;;21.13;12.32;;;;;;;;;;4980760;28;20065;-83
2023/04/21 06:24:37;;;;;;;20.00;12.32;;;;;;;;;;4978876;28;20034;-86
2023/04/21 06:27:03;;;;;;;22.63;13.43;;;;;;;;;;4980397;28;20033;-85
2023/04/21 06:29:29;;;;;;;22.73;13.82;;;;;;;;;;4980291;28;20073;-85
2023/04/21 06:31:55;;;;;;;24.35;14.63;;;;;;;;;;5000140;28;20051;-86
2023/04/21 06:34:22;;;;;;;20.25;12.50;;;;;;;;;;4990816;28;20030;-83
2023/04/21 06:36:48;;;;;;;21.60;13.30;;;;;;;;;;4994247;28;20003;-85
2023/04/21 06:39:14;;;;;;;24.17;14.10;;;;;;;;;;4990786;28;20382;-83
2023/04/21 06:41:40;;;;;;;20.92;12.82;;;;;;;;;;4983722;28;20038;-82
2023/04/21 06:44:06;;;;;;;24.08;14.10;;;;;;;;;;4989178;28;20094;-84
2023/04/21 06:46:32;;;;;;;24.67;14.75;;;;;;;;;;4986362;28;20039;-82
2023/04/21 06:48:58;;;;;;;21.63;13.45;;;;;;;;;;4991998;28;20086;-82
2023/04/21 06:51:24;;;;;;;24.23;13.60;;;;;;;;;;4993695;28;20027;-83
2023/04/21 06:53:50;;;;;;;23.60;13.90;;;;;;;;;;4990957;28;20058;-86
2023/04/21 06:56:16;;;;;;;23.25;14.63;;;;;;;;;;4993630;28;20069;-88
2023/04/21 06:58:42;;;;;;;22.85;14.18;;;;;;;;;;4986501;28;20620;-86
2023/04/21 07:01:08;;;;;;;24.25;14.52;;;;;;;;;;4992364;28;20090;-85
2023/04/21 07:03:34;;;;;;;24.27;14.05;;;;;;;;;;4989551;28;20031;-86
2023/04/21 07:06:00;;;;;;;21.60;13.80;;;;;;;;;;4988913;28;20026;-87
2023/04/21 07:08:26;;;;;;;23.65;13.90;;;;;;;;;;4996148;28;20031;-89
2023/04/21 07:10:52;;;;;;;20.55;12.88;;;;;;;;;;5003414;28;20082;-81
2023/04/21 07:13:18;;;;;;;21.05;12.40;;;;;;;;;;4985134;28;20003;-86
2023/04/21 07:15:44;;;;;;;19.60;12.68;;;;;;;;;;4984894;28;20038;-87
2023/04/21 07:18:10;;;;;;;19.75;12.23;;;;;;;;;;4991572;28;20027;-84
2023/04/21 07:20:36;;;;;;;17.75;11.52;;;;;;;;;;4994534;28;20532;-85
2023/04/21 07:23:02;;;;;;;17.17;11.77;;;;;;;;;;4987198;28;20038;-84
2023/04/21 07:25:28;;;;;;;18.55;11.52;;;;;;;;;;4989990;28;20027;-81
2023/04/21 07:27:54;;;;;;;18.65;11.38;;;;;;;;;;5001385;28;20023;-84
2023/04/21 07:30:20;;;;;;;17.90;11.38;;;;;;;;;;4974261;28;20066;-82
2023/04/21 07:32:46;;;;;;;19.83;12.30;;;;;;;;;;4981706;28;20027;-82
2023/04/21 07:35:12;;;;;;;18.92;11.52;;;;;;;;;;4983737;28;20091;-85
2023/04/21 07:37:39;;;;;;;14.73;10.00;;;;;;;;;;4983081;28;20019;-83
2023/04/21 07:40:06;;;;;;;15.00;10.20;;;;;;;;;;4981638;28;20034;-82
2023/04/21 07:42:32;;;;;;;15.38;9.25;;;;;;;;;;5010659;28;20090;-82
2023/04/21 07:44:59;;;;;;;15.60;9.93;;;;;;;;;;4988949;28;20023;-84
2023/04/21 07:47:26;;;;;;;15.60;9.38;;;;;;;;;;4993779;28;20027;-85
2023/04/21 07:49:52;;;;;;;17.08;12.30;;;;;;;;;;4990603;28;20157;-83
2023/04/21 07:52:18;;;;;;;15.45;9.20;;;;;;;;;;4986483;28;20022;-83
2023/04/21 07:54:47;;;;;;;18.15;10.38;;;;;;;;;;4984041;28;20031;-83
2023/04/21 07:57:13;;;;;;;15.93;10.27;;;;;;;;;;4990190;28;20027;-84
2023/04/21 07:59:39;;;;;;;12.55;9.07;;;;;;;;;;5000490;28;20050;-83
2023/04/21 08:02:05;;;;;;;13.77;9.38;;;;;;;;;;4986599;28;20038;-82
2023/04/21 08:04:31;;;;;;;13.23;7.70;;;;;;;;;;4989531;28;20022;-85
2023/04/21 08:06:57;;;;;;;12.18;7.88;;;;;;;;;;4986736;28;20027;-84
2023/04/21 08:09:23;;;;;;;11.30;7.60;;;;;;;;;;5004114;28;20026;-83
2023/04/21 08:11:49;;;;;;;15.38;9.07;;;;;;;;;;4990267;28;20038;-83
2023/04/21 08:14:15;;;;;;;13.82;8.73;;;;;;;;;;4990080;28;20034;-85
2023/04/21 08:16:41;;;;;;;13.38;9.20;;;;;;;;;;4988639;28;20148;-84
2023/04/21 08:19:08;;;;;;;12.95;9.00;;;;;;;;;;4985637;28;20384;-83
2023/04/21 08:21:34;;;;;;;14.65;9.27;;;;;;;;;;4992117;28;20019;-83
2023/04/21 08:24:00;;;;;;;12.90;8.32;;;;;;;;;;4989499;28;20043;-84
2023/04/21 08:26:28;;;;;;;12.30;7.88;;;;;;;;;;4987424;28;20039;-82
2023/04/21 08:28:54;;;;;;;13.18;8.00;;;;;;;;;;4979234;28;20032;-82
2023/04/21 08:31:21;;;;;;;12.45;8.18;;;;;;;;;;4991520;28;20035;-86
2023/04/21 08:33:47;;;;;;;10.00;7.47;;;;;;;;;;4986095;28;20030;-84
2023/04/21 08:36:13;;;;;;;11.25;7.30;;;;;;;;;;4989939;28;20559;-85
2023/04/21 08:38:40;;;;;;;9.93;6.90;;;;;;;;;;4994141;28;20050;-87
2023/04/21 08:41:08;;;;;;;10.75;6.22;;;;;;;;;;5009978;28;20031;-86
2023/04/21 08:43:36;;;;;;;10.23;6.20;;;;;;;;;;4998974;28;20050;-89
2023/04/21 08:46:05;;;;;;;10.98;5.93;;;;;;;;;;4999318;28;20036;-85
2023/04/21 08:48:33;;;;;;;9.18;6.22;;;;;;;;;;5014890;28;20102;-87
2023/04/21 08:51:01;;;;;;;8.18;5.47;;;;;;;;;;4989772;28;20027;-83
2023/04/21 08:53:27;;;;;;;7.82;4.90;;;;;;;;;;4990335;28;20424;-85
2023/04/21 08:55:54;;;;;;;6.68;4.65;;;;;;;;;;4990954;28;20194;-86
2023/04/21 08:58:23;;;;;;;7.60;4.60;;;;;;;;;;4979506;28;20063;-81
2023/04/21 09:00:49;;;;;;;7.75;4.10;;;;;;;;;;4981320;28;20023;-83
2023/04/21 09:03:22;;;;;;;5.88;4.07;;;;;;;;;;4980149;28;20047;-85
2023/04/21 09:06:08;;;;;;;4.97;3.28;;;12.60;99.90;;;;;;4980624;28;20031;-82
2023/04/21 09:08:38;;;;;;;5.20;3.50;;;;;;;;;;4979270;28;20042;-85
2023/04/21 09:11:04;;;;;;;4.73;3.33;;;;;;;;;;4978262;28;20030;-82
2023/04/21 09:13:37;;;;;;;5.18;3.65;;;;;;;;;;4985936;28;20030;-85
2023/04/21 09:16:04;;;;;;;6.00;3.30;;;;;;;;;;4986218;28;20027;-83
2023/04/21 09:18:35;;;;;;;5.40;3.63;;;;;;;;;;4977637;28;20039;-85
2023/04/21 09:21:15;;;;;;;5.40;3.35;;;13.70;99.90;;;;;;4984927;28;20038;-81
2023/04/21 09:23:42;;;;;;;5.63;3.55;;;;;;;;;;4985492;28;20031;-86
2023/04/21 09:26:09;;;;;;;5.50;3.60;;;;;;;;;;4988608;28;20057;-85
2023/04/21 09:28:35;;;;;;;5.80;3.70;;;;;;;;;;4983371;28;20055;-83
2023/04/21 09:31:01;;;;;;;5.05;3.33;;;;;;;;;;4975502;28;20046;-86
2023/04/21 09:33:27;;;;;;;5.75;3.75;;;13.80;99.90;;;;;;4977677;28;20034;-84
2023/04/21 09:35:53;;;;;;;5.05;3.40;;;;;;;;;;4983785;28;20034;-83
2023/04/21 09:38:21;;;;;;;5.50;3.72;;;;;;;;;;4984156;28;20489;-83
2023/04/21 09:40:59;;;;;;;5.75;3.72;;;;;;;;;;4983501;28;20118;-87
2023/04/21 09:43:25;;;;;;;5.93;4.00;;;;;;;;;;4969973;28;20051;-84
2023/04/21 09:45:52;;;;;;;5.45;3.78;;;;;;;;;;4983152;28;20564;-85
2023/04/21 09:48:18;;;;;;;5.72;3.78;;;;;;;;;;4987515;28;20019;-81
2023/04/21 09:50:46;;;;;;;5.97;4.07;;;14.60;99.90;;;;;;4994396;28;20050;-82
2023/04/21 09:53:15;;;;;;;5.60;3.72;;;;;;;;;;4981336;28;20023;-83
2023/04/21 09:55:41;;;;;;;5.72;4.13;;;;;;;;;;4989285;28;20034;-82
2023/04/21 09:58:09;;;;;;;6.55;3.92;;;;;;;;;;4983177;28;20126;-82
2023/04/21 10:00:38;;;;;;;6.13;3.72;;;;;;;;;;4986524;28;20625;-86
2023/04/21 10:03:09;;;;;;;4.78;3.55;;;;;;;;;;4986549;28;20098;-82
2023/04/21 10:05:35;;;;;;;5.32;3.78;;;;;;;;;;4985690;28;20034;-84
2023/04/21 10:08:01;;;;;;;7.07;3.28;;;;;;;;;;4988519;28;20049;-84
2023/04/21 10:10:30;;;;;;;5.45;3.25;;;;;;;;;;4988896;28;20457;-83
2023/04/21 10:12:56;;;;;;;5.40;3.70;;;;;;;;;;4988829;28;20110;-85
2023/04/21 10:15:31;;;;;;;4.60;3.03;;;;;;;;;;4991681;28;20026;-89
2023/04/21 10:18:13;;;;;;;5.32;3.50;;;;;;;;;;4988784;28;20011;-83
2023/04/21 10:20:57;;;;;;;4.68;3.17;;;;;;;;;;4993756;28;20023;-87
2023/04/21 10:23:27;;;;;;;5.03;3.55;;;;;;;;;;4992031;28;20037;-86
2023/04/21 10:25:53;;;;;;;6.22;3.50;;;;;;;;;;4982800;28;20481;-85
2023/04/21 10:28:19;;;;;;;4.78;3.25;;;;;;;;;;4989057;28;20098;-85
2023/04/21 10:30:45;;;;;;;4.45;2.80;;;;;;;;;;4987026;28;20028;-86
2023/04/21 10:33:11;;;;;;;4.35;2.83;;;;;;;;;;4985121;28;20055;-87
2023/04/21 10:35:56;;;;;;;5.50;2.60;;;;;;;;;;4987296;28;20030;-87
2023/04/21 10:38:52;;;;;;;4.85;2.20;;;;;;;;;;4990462;28;20039;-82
2023/04/21 10:41:27;;;;;;;3.30;2.00;;;;;;;;;;4980037;28;20038;-86
2023/04/21 10:43:53;;;;;;;2.83;2.05;;;;;;;;;;4983669;28;20054;-84
2023/04/21 10:46:32;;;;;;;3.28;1.90;;;;;;;;;;4980968;28;20090;-85
2023/04/21 10:49:05;;;;;;;2.88;2.08;;;;;;;;;;4983384;28;20035;-83
2023/04/21 10:51:31;;;;;;;2.97;1.92;;;;;;;;;;4994545;28;20027;-86
2023/04/21 10:53:58;;;;;;;3.95;2.00;;;;;;;;;;4985433;28;20031;-83
2023/04/21 10:56:25;;;;;;;2.72;2.00;;;;;;;;;;4974929;28;20043;-82
2023/04/21 10:58:53;;;;;;;3.63;1.95;;;;;;;;;;4984333;28;20063;-83
2023/04/21 11:01:19;;;;;;;2.45;1.50;;;;;;;;;;4985694;28;20409;-83
2023/04/21 11:03:45;;;;;;;3.30;1.73;;;;;;;;;;4987243;28;20030;-83
2023/04/21 11:06:18;;;;;;;3.03;2.00;;;;;;;;;;4981142;28;20034;-86
2023/04/21 11:08:56;;;;;;;3.28;2.17;;;17.20;94.90;;;;;;4996280;28;20094;-84
2023/04/21 11:11:23;;;;;;;3.78;2.33;;;;;;;;;;4991345;28;20031;-84
2023/04/21 11:13:49;;;;;;;3.28;1.98;;;;;;;;;;4986094;28;20034;-82
2023/04/21 11:16:15;;;;;;;2.67;1.90;;;;;;;;;;4991240;28;20031;-85
2023/04/21 11:18:44;;;;;;;2.25;1.65;;;17.50;93.70;;;;;;4990953;28;20038;-85
2023/04/21 11:21:16;;;;;;;3.05;1.85;;;17.70;93.50;;;;;;4988534;28;20026;-86
2023/04/21 11:23:50;;;;;;;2.83;1.77;;;17.60;93.50;;;;;;4983029;28;20094;-82
2023/04/21 11:26:16;;;;;;;2.30;1.63;;;;;;;;;;4996375;28;20039;-87
2023/04/21 11:28:42;;;;;;;2.40;1.60;;;;;;;;;;4988329;28;20058;-85
2023/04/21 11:31:08;;;;;;;3.03;1.95;;;;;;;;;;4982465;28;20016;-87
2023/04/21 11:33:38;;;;;;;4.38;1.90;;;17.20;94.20;;;;;;4987188;28;20015;-83
2023/04/21 11:36:05;;;;;;;3.05;1.75;;;17.20;94.20;;;;;;4983539;28;20031;-85
2023/04/21 11:38:38;;;;;;;2.58;1.70;;;17.20;94.10;;;;;;4990863;28;20023;-84
2023/04/21 11:41:04;;;;;;;3.05;1.88;;;;;;;;;;4989361;28;20022;-85
2023/04/21 11:43:42;;;;;;;2.50;1.70;;;;;;;;;;4987733;28;20027;-85
2023/04/21 11:46:26;;;;;;;2.95;1.60;;;17.00;94.30;;;;;;4979829;28;20097;-85
2023/04/21 11:48:58;;;;;;;3.45;1.48;;;;;;;;;;4981008;28;20523;-83
2023/04/21 11:51:24;;;;;;;2.28;1.45;;;;;;;;;;4994806;28;20132;-85
2023/04/21 11:53:51;;;;;;;1.70;1.20;;;;;;;;;;4990283;28;20022;-87
2023/04/21 11:56:20;;;;;;;1.90;1.50;;;;;;;;;;4993010;28;20007;-85
2023/04/21 11:58:47;;;;;;;2.90;1.55;;;;;;;;;;4990916;28;20042;-88
2023/04/21 12:01:15;;;;;;;3.17;1.65;;;17.20;94.30;;;;;;4987458;28;20015;-86
2023/04/21 12:03:41;;;;;;;2.15;1.52;;;;;;;;;;4992258;28;20015;-89
2023/04/21 12:06:07;;;;;;;2.13;1.50;;;;;;;;;;4992266;28;20027;-86
2023/04/21 12:08:33;;;;;;;3.53;1.40;;;;;;;;;;4992104;28;20058;-87
2023/04/21 12:11:01;;;;;;;2.30;1.55;;;16.90;94.10;;;;;;4979042;28;20031;-87
2023/04/21 12:13:28;;;;;;;2.65;1.50;;;;;;;;;;4994318;28;20035;-86
2023/04/21 12:15:54;;;;;;;2.13;1.30;;;;;;;;;;4991729;28;20046;-86
2023/04/21 12:18:20;;;;;;;1.60;1.20;;;;;;;;;;4995025;28;20478;-83
2023/04/21 12:20:51;;;;;;;2.25;1.20;;;16.90;94.80;;;;;;4989515;28;20054;-87
2023/04/21 12:23:18;;;;;;;2.67;1.40;;;17.00;95.30;;;;;;4991495;28;20027;-84
2023/04/21 12:25:45;;;;;;;3.78;1.50;;;;;;;;;;4971794;28;20058;-82
2023/04/21 12:28:11;;;;;;;3.13;1.30;;;;;;;;;;4986847;28;20023;-85
2023/04/21 12:30:37;;;;;;;2.03;1.38;;;;;;;;;;4989509;28;20039;-83
2023/04/21 12:33:03;;;;;;;1.83;1.20;;;;;;;;;;4990436;28;20031;-86
2023/04/21 12:35:32;;;;;;;1.95;1.38;;;;;;;;;;4990986;28;20027;-84
2023/04/21 12:37:58;;;;;;;3.05;1.20;;;;;;;;;;4986749;28;20015;-85
2023/04/21 12:40:25;;;;;;;1.80;1.23;;;;;;;;;;4987035;28;20038;-87
2023/04/21 12:42:51;;;;;;;2.15;1.33;;;;;;;;;;4984160;28;20127;-88
2023/04/21 12:45:17;;;;;;;2.63;1.23;;;;;;;;;;4984077;28;20023;-84
2023/04/21 12:47:43;;;;;;;2.05;1.25;;;;;;;;;;4986463;28;20023;-86
2023/04/21 12:50:10;;;;;;;2.28;1.40;;;;;;;;;;4990561;28;20046;-83
2023/04/21 12:52:36;;;;;;;2.97;1.60;;;;;;;;;;4987847;28;20041;-84
2023/04/21 12:55:03;;;;;;;1.58;1.13;;;;;;;;;;4985443;28;20034;-83
2023/04/21 12:57:30;;;;;;;3.13;1.00;;;;;;;;;;4987075;28;20038;-83
2023/04/21 12:59:56;;;;;;;2.80;1.00;;;;;;;;;;4998309;28;20495;-82
2023/04/21 13:02:22;;;;;;;2.35;1.38;;;;;;;;;;4986282;28;20035;-85
2023/04/21 13:04:48;;;;;;;2.47;1.42;;;;;;;;;;4988262;28;20030;-84
2023/04/21 13:07:15;;;;;;;2.88;1.75;;;;;;;;;;4984687;28;20031;-86
2023/04/21 13:09:41;;;;;;;1.92;1.13;;;;;;;;;;4993456;28;20081;-84
2023/04/21 13:12:07;;;;;;;2.45;1.20;;;;;;;;;;4979398;28;20074;-85
2023/04/21 13:14:33;;;;;;;1.50;1.08;;;;;;;;;;4987379;28;20111;-84
2023/04/21 13:16:59;;;;;;;3.45;1.27;;;;;;;;;;4994049;28;20035;-86
2023/04/21 13:19:28;;;;;;;1.25;0.90;;;;;;;;;;4984654;28;20523;-84
2023/04/21 13:21:55;;;;;;;1.35;0.98;;;;;;;;;;4988551;28;20042;-82
2023/04/21 13:24:21;;;;;;;3.90;1.40;;;;;;;;;;4976604;28;20484;-83
2023/04/21 13:26:50;;;;;;;2.08;1.33;;;18.00;91.30;;;;;;4985803;28;20037;-83
2023/04/21 13:29:18;;;;;;;1.27;1.00;;;;;;;;;;4983475;28;20041;-85
2023/04/21 13:31:44;;;;;;;1.63;1.00;;;;;;;;;;4982408;28;20031;-85
2023/04/21 13:34:10;;;;;;;1.80;1.10;;;;;;;;;;4972728;28;20026;-85
2023/04/21 13:36:36;;;;;;;2.33;1.00;;;;;;;;;;4984459;28;20027;-85
2023/04/21 13:39:04;;;;;;;2.25;1.30;;;;;;;;;;4990015;28;20054;-87
2023/04/21 13:41:30;;;;;;;4.28;1.42;;;;;;;;;;4994290;28;20042;-88
2023/04/21 13:43:56;;;;;;;1.23;0.98;;;;;;;;;;4990669;28;20038;-84
2023/04/21 13:46:23;;;;;;;1.83;1.20;;;;;;;;;;4981967;28;20050;-87
2023/04/21 13:48:50;;;;;;;1.27;0.80;;;;;;;;;;4982503;28;20061;-87
2023/04/21 13:51:16;;;;;;;1.27;1.00;;;;;;;;;;4981914;28;20042;-86
2023/04/21 13:53:42;;;;;;;3.13;1.00;;;;;;;;;;4979877;28;20030;-88
2023/04/21 13:56:10;;;;;;;1.50;1.00;;;;;;;;;;4985404;28;20046;-87
2023/04/21 13:58:36;;;;;;;2.00;1.00;;;;;;;;;;4998974;28;20046;-86
2023/04/21 14:01:03;;;;;;;1.90;1.23;;;;;;;;;;4982399;28;20055;-87
2023/04/21 14:03:29;;;;;;;1.60;0.95;;;;;;;;;;4989048;28;20090;-88
2023/04/21 14:06:04;;;;;;;1.73;1.02;;;19.50;81.60;;;;;;4986495;28;20061;-88
2023/04/21 14:08:33;;;;;;;1.38;0.90;;;;;;;;;;4984100;28;20026;-89
2023/04/21 14:10:59;;;;;;;1.13;0.95;;;;;;;;;;4986322;28;20020;-87
2023/04/21 14:13:31;;;;;;;1.92;1.00;;;;;;;;;;4991913;28;20042;-84
2023/04/21 14:15:58;;;;;;;1.60;1.20;;;;;;;;;;4985965;28;20034;-85
2023/04/21 14:18:26;;;;;;;2.00;1.13;;;;;;;;;;4986851;28;20015;-86
2023/04/21 14:21:01;;;;;;;1.35;1.05;;;;;;;;;;4987426;28;20019;-83